createdAt,value
2017-09-17T00:00:34.125Z,21.70
2017-09-17T00:03:00.521Z,19.20
2017-09-17T00:05:27.643Z,16.92
2017-09-17T00:07:54.047Z,13.73
2017-09-17T00:10:20.394Z,17.20
2017-09-17T00:12:46.751Z,18.40
2017-09-17T00:15:13.851Z,18.35
2017-09-17T00:17:40.226Z,15.70
2017-09-17T00:20:07.310Z,21.15
2017-09-17T00:22:33.913Z,17.83
2017-09-17T00:25:01.032Z,16.77
2017-09-17T00:27:27.342Z,29.05
2017-09-17T00:29:53.700Z,25.92
2017-09-17T00:32:20.064Z,23.73
2017-09-17T00:34:47.135Z,37.08
2017-09-17T00:37:13.489Z,24.35
2017-09-17T00:39:39.874Z,19.00
2017-09-17T00:42:06.274Z,18.05
2017-09-17T00:44:33.720Z,18.30
2017-09-17T00:47:00.107Z,14.07
2017-09-17T00:49:26.530Z,16.90
2017-09-17T00:51:52.920Z,17.67
2017-09-17T00:54:20.066Z,16.98
2017-09-17T00:56:46.458Z,18.02
2017-09-17T00:59:12.882Z,18.80
2017-09-17T01:01:39.293Z,17.65
2017-09-17T01:04:05.657Z,18.17
2017-09-17T01:06:32.443Z,16.98
2017-09-17T01:08:59.578Z,19.08
2017-09-17T01:11:26.714Z,14.60
2017-09-17T01:13:53.112Z,20.52
2017-09-17T01:16:19.479Z,16.05
2017-09-17T01:18:45.845Z,16.45
2017-09-17T01:21:12.251Z,15.30
2017-09-17T01:23:39.578Z,16.20
2017-09-17T01:26:05.960Z,15.27
2017-09-17T01:28:32.324Z,16.42
2017-09-17T01:30:58.706Z,17.50
2017-09-17T01:33:26.146Z,16.10
2017-09-17T01:35:53.229Z,14.35
2017-09-17T01:38:19.579Z,15.75
2017-09-17T01:40:46.007Z,16.73
2017-09-17T01:43:12.379Z,15.23
2017-09-17T01:45:38.727Z,15.02
2017-09-17T01:48:05.172Z,16.77
2017-09-17T01:50:31.501Z,17.37
2017-09-17T01:52:57.850Z,16.55
2017-09-17T01:55:24.545Z,20.77
2017-09-17T01:57:51.614Z,16.65
2017-09-17T02:00:18.008Z,16.75
2017-09-17T02:02:45.104Z,14.80
2017-09-17T02:05:11.463Z,19.87
2017-09-17T02:07:37.813Z,14.40
2017-09-17T02:10:04.897Z,16.02
2017-09-17T02:12:31.597Z,13.07
2017-09-17T02:14:58.726Z,14.73
2017-09-17T02:17:25.083Z,21.12
2017-09-17T02:19:52.178Z,18.10
2017-09-17T02:22:18.533Z,17.95
2017-09-17T02:24:44.869Z,18.00
2017-09-17T02:27:11.199Z,18.42
2017-09-17T02:29:37.566Z,20.70
2017-09-17T02:32:03.924Z,18.25
2017-09-17T02:34:31.636Z,21.30
2017-09-17T02:36:58.708Z,16.25
2017-09-17T02:39:25.098Z,19.10
2017-09-17T02:41:51.503Z,22.23
2017-09-17T02:44:17.868Z,30.08
2017-09-17T02:46:44.980Z,20.00
2017-09-17T02:49:11.407Z,23.20
2017-09-17T02:51:37.780Z,20.48
2017-09-17T02:54:04.892Z,21.92
2017-09-17T02:56:31.263Z,22.17
2017-09-17T02:58:58.361Z,19.12
2017-09-17T03:01:25.129Z,15.60
2017-09-17T03:06:24.834Z,19.80
2017-09-17T03:08:51.143Z,19.15
2017-09-17T03:11:17.474Z,18.52
2017-09-17T03:13:43.809Z,23.85
2017-09-17T03:16:10.177Z,16.80
2017-09-17T03:18:37.294Z,20.08
2017-09-17T03:21:03.647Z,21.65
2017-09-17T03:23:35.878Z,23.40
2017-09-17T03:26:02.259Z,22.60
2017-09-17T03:28:29.686Z,23.85
2017-09-17T03:30:56.030Z,22.30
2017-09-17T03:33:22.420Z,19.67
2017-09-17T03:35:48.797Z,20.37
2017-09-17T03:38:15.860Z,20.23
2017-09-17T03:40:42.958Z,16.17
2017-09-17T03:43:09.336Z,19.60
2017-09-17T03:45:36.501Z,20.80
2017-09-17T03:48:02.852Z,17.92
2017-09-17T03:50:29.617Z,24.80
2017-09-17T03:52:55.980Z,21.58
2017-09-17T03:55:22.338Z,20.55
2017-09-17T03:57:48.702Z,24.80
2017-09-17T04:00:15.059Z,22.23
2017-09-17T04:02:41.456Z,19.00
2017-09-17T04:05:07.844Z,24.50
2017-09-17T04:07:34.203Z,22.73
2017-09-17T04:10:00.537Z,19.60
2017-09-17T04:12:27.187Z,19.33
2017-09-17T04:14:53.547Z,23.00
2017-09-17T04:17:20.640Z,21.35
2017-09-17T04:19:46.986Z,20.17
2017-09-17T04:22:13.320Z,22.67
2017-09-17T04:24:39.996Z,29.37
2017-09-17T04:27:07.082Z,29.75
2017-09-17T04:29:33.417Z,23.80
2017-09-17T04:31:59.785Z,24.00
2017-09-17T04:34:26.504Z,19.30
2017-09-17T04:36:52.838Z,16.67
2017-09-17T04:39:19.933Z,11.93
2017-09-17T04:41:46.297Z,13.70
2017-09-17T04:44:12.651Z,20.23
2017-09-17T04:46:39.721Z,15.43
2017-09-17T04:49:06.849Z,13.50
2017-09-17T04:51:33.229Z,15.20
2017-09-17T04:53:59.581Z,13.40
2017-09-17T04:56:25.944Z,12.03
2017-09-17T04:58:52.324Z,17.40
2017-09-17T05:01:18.986Z,12.17
2017-09-17T05:03:45.385Z,16.17
2017-09-17T05:06:11.727Z,19.03
2017-09-17T05:08:38.173Z,20.90
2017-09-17T05:11:04.524Z,18.30
2017-09-17T05:13:31.616Z,16.17
2017-09-17T05:15:57.964Z,22.13
2017-09-17T05:18:24.335Z,19.97
2017-09-17T05:20:51.435Z,21.40
2017-09-17T05:23:17.798Z,23.05
2017-09-17T05:25:44.155Z,17.15
2017-09-17T05:28:10.847Z,20.80
2017-09-17T05:30:37.213Z,18.55
2017-09-17T05:33:03.583Z,23.42
2017-09-17T05:35:29.973Z,27.30
2017-09-17T05:37:57.094Z,18.77
2017-09-17T05:40:23.468Z,19.12
2017-09-17T05:42:49.823Z,20.00
2017-09-17T05:45:16.230Z,20.65
2017-09-17T05:47:42.598Z,20.50
2017-09-17T05:50:08.965Z,20.23
2017-09-17T05:52:36.070Z,19.52
2017-09-17T05:55:02.442Z,22.55
2017-09-17T05:57:29.541Z,54.50
2017-09-17T05:59:55.949Z,36.67
2017-09-17T06:02:22.291Z,22.85
2017-09-17T06:04:48.637Z,21.48
2017-09-17T06:07:15.302Z,31.67
2017-09-17T06:09:42.391Z,30.60
2017-09-17T06:12:08.740Z,34.00
2017-09-17T06:14:35.111Z,31.90
2017-09-17T06:17:02.237Z,32.25
2017-09-17T06:19:28.641Z,31.77
2017-09-17T06:21:55.002Z,38.35
2017-09-17T06:24:21.407Z,39.25
2017-09-17T06:26:47.777Z,35.85
2017-09-17T06:29:14.508Z,31.48
2017-09-17T06:31:41.579Z,31.15
2017-09-17T06:34:07.973Z,27.17
2017-09-17T06:36:34.339Z,31.98
2017-09-17T06:39:00.727Z,24.75
2017-09-17T06:41:27.114Z,29.45
2017-09-17T06:43:53.444Z,25.65
2017-09-17T06:46:20.535Z,22.80
2017-09-17T06:48:47.023Z,24.17
2017-09-17T06:51:13.675Z,31.02
2017-09-17T06:56:13.174Z,22.15
2017-09-17T06:58:39.562Z,22.80
2017-09-17T07:01:05.927Z,25.98
2017-09-17T07:03:32.278Z,22.30
2017-09-17T07:05:58.652Z,21.83
2017-09-17T07:08:24.992Z,23.43
2017-09-17T07:10:52.072Z,22.47
2017-09-17T07:13:18.762Z,23.25
2017-09-17T07:15:45.898Z,20.40
2017-09-17T07:18:12.244Z,19.20
2017-09-17T07:20:39.387Z,19.95
2017-09-17T07:23:05.821Z,22.42
2017-09-17T07:25:32.152Z,18.90
2017-09-17T07:27:58.511Z,19.20
2017-09-17T07:30:24.934Z,21.83
2017-09-17T07:32:51.281Z,23.97
2017-09-17T07:35:17.995Z,20.43
2017-09-17T07:37:45.114Z,24.00
2017-09-17T07:40:11.510Z,19.97
2017-09-17T07:42:37.884Z,21.47
2017-09-17T07:45:04.232Z,29.87
2017-09-17T07:47:30.947Z,25.03
2017-09-17T07:49:57.448Z,18.00
2017-09-17T07:52:23.799Z,22.03
2017-09-17T07:54:50.210Z,19.10
2017-09-17T07:57:16.592Z,15.37
2017-09-17T07:59:44.040Z,13.80
2017-09-17T08:02:10.419Z,13.43
2017-09-17T08:04:36.807Z,12.87
2017-09-17T08:07:04.244Z,11.20
2017-09-17T08:09:31.364Z,10.97
2017-09-17T08:11:57.716Z,11.73
2017-09-17T08:14:24.095Z,11.80
2017-09-17T08:16:50.454Z,12.57
2017-09-17T08:19:16.831Z,9.70
2017-09-17T08:21:43.252Z,10.53
2017-09-17T08:24:09.964Z,9.67
2017-09-17T08:26:36.307Z,9.23
2017-09-17T08:29:03.421Z,9.33
2017-09-17T08:31:29.809Z,10.70
2017-09-17T08:33:56.217Z,12.40
2017-09-17T08:36:22.611Z,11.70
2017-09-17T08:38:48.943Z,11.50
2017-09-17T08:41:15.603Z,11.73
2017-09-17T08:43:42.004Z,12.60
2017-09-17T08:46:08.342Z,14.97
2017-09-17T08:48:34.764Z,12.03
2017-09-17T08:51:01.131Z,12.30
2017-09-17T08:53:28.300Z,7.20
2017-09-17T08:55:55.442Z,13.87
2017-09-17T08:58:22.877Z,12.97
2017-09-17T09:00:49.303Z,11.90
2017-09-17T09:03:15.711Z,8.90
2017-09-17T09:05:42.095Z,9.10
2017-09-17T09:08:08.534Z,11.60
2017-09-17T09:10:35.282Z,10.13
2017-09-17T09:13:01.711Z,11.60
2017-09-17T09:15:28.126Z,9.10
2017-09-17T09:17:54.530Z,9.93
2017-09-17T09:20:20.976Z,8.60
2017-09-17T09:22:48.162Z,9.33
2017-09-17T09:25:14.583Z,12.07
2017-09-17T09:27:40.932Z,12.20
2017-09-17T09:30:07.350Z,8.80
2017-09-17T09:32:34.787Z,10.13
2017-09-17T09:35:01.209Z,12.90
2017-09-17T09:37:28.331Z,9.60
2017-09-17T09:39:55.515Z,11.70
2017-09-17T09:42:21.970Z,9.00
2017-09-17T09:44:48.424Z,9.60
2017-09-17T09:47:14.891Z,11.47
2017-09-17T09:49:42.109Z,9.53
2017-09-17T09:52:08.556Z,9.37
2017-09-17T09:54:35.296Z,11.97
2017-09-17T09:57:02.465Z,14.07
2017-09-17T09:59:29.635Z,11.30
2017-09-17T10:01:56.046Z,11.10
2017-09-17T10:04:22.433Z,7.47
2017-09-17T10:06:49.208Z,8.13
2017-09-17T10:09:16.318Z,10.97
2017-09-17T10:11:42.700Z,8.27
2017-09-17T10:14:09.155Z,9.63
2017-09-17T10:16:35.551Z,11.13
2017-09-17T10:19:02.698Z,12.03
2017-09-17T10:21:29.124Z,8.80
2017-09-17T10:23:55.784Z,11.57
2017-09-17T10:26:22.181Z,8.33
2017-09-17T10:28:48.611Z,9.77
2017-09-17T10:31:15.022Z,6.50
2017-09-17T10:33:41.461Z,8.70
2017-09-17T10:36:08.235Z,5.33
2017-09-17T10:38:34.640Z,12.33
2017-09-17T10:41:01.023Z,7.17
2017-09-17T10:43:27.415Z,5.80
2017-09-17T10:45:54.514Z,8.90
2017-09-17T10:48:20.933Z,5.97
2017-09-17T10:50:47.274Z,6.63
2017-09-17T10:53:13.756Z,7.77
2017-09-17T10:55:40.883Z,9.30
2017-09-17T10:58:07.633Z,7.33
2017-09-17T11:00:33.966Z,9.20
2017-09-17T11:03:01.071Z,6.53
2017-09-17T11:05:27.454Z,11.40
2017-09-17T11:07:54.597Z,5.90
2017-09-17T11:10:21.708Z,5.40
2017-09-17T11:12:48.083Z,4.23
2017-09-17T11:15:15.544Z,7.87
2017-09-17T11:17:42.640Z,6.90
2017-09-17T11:20:09.010Z,7.10
2017-09-17T11:22:35.376Z,5.63
2017-09-17T11:25:01.720Z,5.03
2017-09-17T11:27:28.111Z,4.93
2017-09-17T11:29:54.706Z,5.63
2017-09-17T11:32:21.356Z,8.83
2017-09-17T11:34:47.714Z,4.57
2017-09-17T11:37:14.099Z,5.13
2017-09-17T11:39:40.493Z,5.00
2017-09-17T11:42:06.862Z,7.03
2017-09-17T11:44:33.254Z,6.30
2017-09-17T11:46:59.587Z,4.10
2017-09-17T11:49:26.369Z,5.40
2017-09-17T11:51:52.726Z,7.83
2017-09-17T11:54:19.887Z,4.60
2017-09-17T11:56:46.275Z,4.97
2017-09-17T11:59:12.636Z,2.77
2017-09-17T12:01:39.774Z,5.07
2017-09-17T12:04:06.865Z,5.67
2017-09-17T12:06:33.528Z,6.73
2017-09-17T12:08:59.898Z,6.47
2017-09-17T12:11:26.299Z,4.40
2017-09-17T12:13:52.687Z,5.53
2017-09-17T12:16:19.787Z,6.40
2017-09-17T12:18:46.912Z,5.10
2017-09-17T12:21:13.303Z,5.47
2017-09-17T12:23:39.991Z,6.53
2017-09-17T12:26:06.376Z,4.20
2017-09-17T12:28:32.731Z,5.00
2017-09-17T12:30:59.895Z,6.97
2017-09-17T12:33:26.264Z,3.80
2017-09-17T12:35:52.616Z,3.20
2017-09-17T12:38:18.988Z,3.53
2017-09-17T12:40:45.375Z,2.97
2017-09-17T12:43:11.735Z,5.70
2017-09-17T12:45:38.492Z,6.90
2017-09-17T12:48:04.862Z,3.40
2017-09-17T12:50:32.146Z,4.80
2017-09-17T12:52:58.554Z,6.20
2017-09-17T12:55:24.899Z,3.73
2017-09-17T12:57:51.271Z,2.97
2017-09-17T13:00:18.356Z,3.60
2017-09-17T13:02:44.734Z,4.87
2017-09-17T13:05:11.897Z,4.10
2017-09-17T13:07:39.041Z,4.23
2017-09-17T13:10:05.415Z,5.20
2017-09-17T13:12:31.820Z,5.20
2017-09-17T13:14:58.196Z,7.20
2017-09-17T13:17:24.615Z,4.60
2017-09-17T13:19:51.277Z,4.10
2017-09-17T13:22:17.659Z,5.30
2017-09-17T13:24:44.020Z,5.63
2017-09-17T13:27:10.418Z,5.03
2017-09-17T13:29:36.765Z,4.23
2017-09-17T13:32:03.134Z,5.50
2017-09-17T13:34:30.243Z,6.20
2017-09-17T13:36:56.624Z,4.90
2017-09-17T13:39:23.782Z,5.60
2017-09-17T13:41:50.980Z,8.17
2017-09-17T13:44:17.386Z,6.00
2017-09-17T13:46:44.072Z,7.57
2017-09-17T13:49:10.641Z,7.17
2017-09-17T13:51:37.016Z,5.40
2017-09-17T13:54:03.438Z,3.33
2017-09-17T13:56:29.853Z,4.27
2017-09-17T13:58:56.276Z,3.73
2017-09-17T14:01:23.641Z,5.23
2017-09-17T14:03:51.773Z,4.60
2017-09-17T14:06:28.810Z,3.00
2017-09-17T14:09:01.177Z,3.33
2017-09-17T14:11:27.576Z,2.87
2017-09-17T14:13:54.283Z,2.27
2017-09-17T14:16:20.680Z,5.40
2017-09-17T14:18:47.070Z,2.83
2017-09-17T14:21:13.481Z,4.10
2017-09-17T14:23:40.589Z,2.40
2017-09-17T14:26:06.987Z,2.67
2017-09-17T14:28:33.380Z,3.30
2017-09-17T14:31:00.531Z,3.90
2017-09-17T14:33:27.604Z,2.33
2017-09-17T14:35:53.979Z,2.33
2017-09-17T14:38:20.369Z,3.10
2017-09-17T14:40:46.992Z,2.13
2017-09-17T14:43:13.343Z,2.87
2017-09-17T14:45:39.700Z,2.93
2017-09-17T14:48:07.188Z,2.20
2017-09-17T14:50:34.302Z,4.57
2017-09-17T14:53:00.705Z,2.23
2017-09-17T14:55:27.062Z,2.57
2017-09-17T14:57:53.419Z,2.50
2017-09-17T15:00:20.520Z,2.77
2017-09-17T15:02:47.216Z,1.80
2017-09-17T15:05:14.355Z,1.63
2017-09-17T15:07:41.511Z,1.57
2017-09-17T15:10:08.608Z,1.80
2017-09-17T15:12:34.993Z,1.67
2017-09-17T15:15:01.350Z,1.77
2017-09-17T15:17:27.727Z,2.63
2017-09-17T15:19:54.110Z,2.77
2017-09-17T15:22:20.494Z,2.30
2017-09-17T15:24:47.586Z,3.27
2017-09-17T15:27:13.929Z,1.67
2017-09-17T15:29:40.603Z,2.50
2017-09-17T15:32:06.983Z,2.70
2017-09-17T15:34:34.079Z,3.10
2017-09-17T15:37:00.475Z,4.63
2017-09-17T15:39:26.871Z,3.77
2017-09-17T15:41:53.270Z,3.27
2017-09-17T15:44:19.596Z,3.63
2017-09-17T15:46:46.018Z,1.20
2017-09-17T15:49:12.540Z,2.00
2017-09-17T15:51:38.968Z,2.10
2017-09-17T15:54:05.354Z,1.13
2017-09-17T15:56:31.754Z,1.73
2017-09-17T15:58:58.904Z,1.30
2017-09-17T16:01:26.024Z,1.80
2017-09-17T16:03:52.421Z,2.93
2017-09-17T16:06:18.827Z,1.67
2017-09-17T16:08:45.243Z,1.40
2017-09-17T16:11:12.338Z,1.47
2017-09-17T16:13:39.009Z,1.80
2017-09-17T16:16:05.389Z,2.63
2017-09-17T16:18:31.756Z,1.87
2017-09-17T16:20:58.200Z,2.13
2017-09-17T16:23:24.571Z,2.90
2017-09-17T16:25:50.978Z,3.87
2017-09-17T16:28:17.397Z,1.47
2017-09-17T16:30:44.119Z,1.53
2017-09-17T16:33:10.533Z,1.53
2017-09-17T16:35:36.948Z,2.10
2017-09-17T16:38:03.367Z,1.37
2017-09-17T16:40:29.744Z,1.40
2017-09-17T16:42:56.127Z,1.13
2017-09-17T16:45:22.529Z,1.40
2017-09-17T16:47:49.673Z,2.63
2017-09-17T16:50:17.003Z,1.67
2017-09-17T16:52:43.432Z,3.70
2017-09-17T16:55:09.869Z,1.43
2017-09-17T16:57:36.645Z,1.90
2017-09-17T17:00:03.067Z,1.17
2017-09-17T17:02:30.211Z,1.70
2017-09-17T17:04:57.365Z,3.30
2017-09-17T17:07:24.526Z,1.70
2017-09-17T17:09:50.926Z,7.40
2017-09-17T17:12:18.155Z,1.57
2017-09-17T17:14:44.617Z,2.20
2017-09-17T17:17:11.774Z,1.77
2017-09-17T17:19:39.245Z,4.70
2017-09-17T17:22:05.730Z,4.70
2017-09-17T17:24:32.193Z,2.40
2017-09-17T17:26:59.386Z,2.80
2017-09-17T17:29:25.757Z,2.80
2017-09-17T17:31:52.209Z,1.73
2017-09-17T17:34:19.371Z,1.40
2017-09-17T17:36:45.797Z,4.23
2017-09-17T17:39:12.236Z,23.57
2017-09-17T17:41:38.681Z,8.27
2017-09-17T17:44:05.058Z,5.53
2017-09-17T17:46:31.462Z,8.17
2017-09-17T17:48:57.861Z,5.87
2017-09-17T17:51:24.283Z,7.33
2017-09-17T17:53:51.081Z,9.53
2017-09-17T17:56:17.513Z,4.83
2017-09-17T17:58:43.884Z,4.00
2017-09-17T18:01:10.351Z,5.40
2017-09-17T18:03:36.822Z,3.60
2017-09-17T18:06:04.063Z,4.60
2017-09-17T18:08:31.205Z,5.23
2017-09-17T18:10:57.599Z,5.00
2017-09-17T18:13:24.036Z,3.50
2017-09-17T18:15:50.829Z,4.67
2017-09-17T18:18:18.043Z,5.10
2017-09-17T18:20:44.443Z,4.10
2017-09-17T18:23:10.909Z,3.33
2017-09-17T18:25:37.349Z,7.17
2017-09-17T18:28:03.737Z,4.17
2017-09-17T18:30:30.159Z,3.50
2017-09-17T18:32:56.665Z,4.80
2017-09-17T18:35:23.901Z,5.37
2017-09-17T18:37:50.462Z,5.40
2017-09-17T18:40:16.907Z,6.60
2017-09-17T18:42:43.642Z,4.67
2017-09-17T18:45:11.692Z,2.83
2017-09-17T18:47:38.171Z,1.90
2017-09-17T18:50:04.869Z,5.10
2017-09-17T18:52:31.337Z,7.90
2017-09-17T18:54:57.844Z,5.90
2017-09-17T18:57:24.353Z,9.67
2017-09-17T18:59:51.609Z,10.37
2017-09-17T19:02:18.009Z,10.37
2017-09-17T19:04:47.814Z,21.90
2017-09-17T19:07:14.289Z,20.93
2017-09-17T19:09:40.768Z,16.50
2017-09-17T19:12:08.138Z,16.83
2017-09-17T19:14:34.601Z,14.00
2017-09-17T19:17:01.124Z,8.97
2017-09-17T19:19:28.394Z,9.60
2017-09-17T19:21:55.155Z,9.20
2017-09-17T19:24:21.704Z,4.97
2017-09-17T19:26:48.146Z,6.45
2017-09-17T19:29:14.643Z,4.40
2017-09-17T19:31:41.115Z,3.90
2017-09-17T19:34:07.559Z,6.47
2017-09-17T19:36:34.025Z,21.23
2017-09-17T19:39:00.560Z,24.98
2017-09-17T19:41:27.188Z,13.13
2017-09-17T19:43:53.668Z,11.82
2017-09-17T19:46:20.165Z,6.57
2017-09-17T19:48:46.734Z,18.75
2017-09-17T19:51:13.187Z,14.18
2017-09-17T19:53:40.076Z,21.20
2017-09-17T19:56:06.559Z,26.65
2017-09-17T19:58:33.021Z,19.67
2017-09-17T20:00:59.497Z,22.10
2017-09-17T20:03:25.933Z,30.85
2017-09-17T20:05:52.436Z,29.92
2017-09-17T20:08:18.928Z,29.25
2017-09-17T20:10:45.400Z,33.15
2017-09-17T20:13:11.907Z,21.83
2017-09-17T20:15:39.476Z,18.45
2017-09-17T20:18:05.925Z,15.95
2017-09-17T20:20:33.054Z,21.20
2017-09-17T20:22:59.569Z,19.85
2017-09-17T20:25:26.039Z,17.92
2017-09-17T20:27:52.460Z,10.25
2017-09-17T20:30:18.871Z,9.52
2017-09-17T20:32:46.068Z,9.35
2017-09-17T20:35:12.457Z,11.48
2017-09-17T20:37:38.869Z,9.93
2017-09-17T20:40:05.238Z,11.95
2017-09-17T20:42:31.893Z,8.85
2017-09-17T20:44:58.313Z,11.27
2017-09-17T20:47:24.745Z,8.20
2017-09-17T20:49:51.168Z,7.97
2017-09-17T20:52:17.564Z,8.90
2017-09-17T20:54:44.691Z,7.43
2017-09-17T20:57:11.068Z,8.13
2017-09-17T20:59:37.771Z,8.45
2017-09-17T21:02:04.160Z,8.35
2017-09-17T21:04:30.553Z,5.80
2017-09-17T21:06:57.001Z,5.80
2017-09-17T21:09:23.357Z,11.40
2017-09-17T21:11:49.768Z,7.07
2017-09-17T21:14:16.155Z,12.55
2017-09-17T21:16:42.562Z,8.88
2017-09-17T21:19:08.930Z,9.80
2017-09-17T21:21:36.371Z,10.90
2017-09-17T21:24:02.746Z,7.43
2017-09-17T21:26:29.102Z,11.98
2017-09-17T21:28:56.431Z,7.65
2017-09-17T21:31:22.855Z,8.27
2017-09-17T21:33:49.228Z,10.75
2017-09-17T21:36:15.602Z,8.48
2017-09-17T21:38:42.049Z,8.00
2017-09-17T21:41:08.425Z,9.20
2017-09-17T21:43:34.817Z,6.97
2017-09-17T21:46:01.177Z,12.88
2017-09-17T21:48:27.649Z,12.13
2017-09-17T21:50:54.014Z,6.80
2017-09-17T21:53:20.389Z,7.40
2017-09-17T21:55:47.590Z,6.93
2017-09-17T21:58:14.022Z,6.85
2017-09-17T22:00:40.783Z,6.70
2017-09-17T22:03:07.126Z,5.05
2017-09-17T22:05:33.525Z,4.10
2017-09-17T22:07:59.932Z,5.85
2017-09-17T22:10:26.373Z,5.35
2017-09-17T22:12:52.743Z,8.00
2017-09-17T22:15:19.119Z,6.60
2017-09-17T22:17:45.772Z,5.93
2017-09-17T22:20:12.168Z,10.00
2017-09-17T22:22:39.251Z,10.13
2017-09-17T22:25:05.605Z,11.93
2017-09-17T22:27:31.940Z,14.05
2017-09-17T22:29:58.301Z,8.20
2017-09-17T22:32:25.407Z,12.05
2017-09-17T22:34:51.778Z,12.80
2017-09-17T22:37:18.874Z,13.90
2017-09-17T22:39:45.531Z,9.35
2017-09-17T22:42:11.892Z,15.25
2017-09-17T22:44:38.269Z,10.55
2017-09-17T22:47:04.669Z,5.47
2017-09-17T22:49:31.069Z,5.62
2017-09-17T22:51:57.423Z,5.72
2017-09-17T22:54:23.804Z,6.53
2017-09-17T22:56:50.447Z,6.80
2017-09-17T22:59:16.779Z,9.05
2017-09-17T23:01:43.122Z,8.85
2017-09-17T23:04:09.468Z,9.60
2017-09-17T23:06:36.583Z,8.75
2017-09-17T23:09:03.022Z,8.07
2017-09-17T23:11:30.105Z,5.90
2017-09-17T23:13:56.391Z,6.53
2017-09-17T23:16:22.728Z,4.20
2017-09-17T23:18:50.166Z,7.10
2017-09-17T23:21:16.525Z,7.18
2017-09-17T23:23:43.643Z,8.55
2017-09-17T23:26:10.030Z,6.82
2017-09-17T23:28:36.354Z,6.90
2017-09-17T23:31:02.713Z,6.57
2017-09-17T23:33:29.797Z,8.60
2017-09-17T23:35:56.883Z,6.65
2017-09-17T23:38:30.104Z,5.12
2017-09-17T23:40:56.437Z,6.80
2017-09-17T23:43:22.799Z,6.60
2017-09-17T23:45:50.228Z,5.45
2017-09-17T23:48:16.590Z,7.80
2017-09-17T23:50:42.939Z,13.75
2017-09-17T23:53:09.324Z,10.70
2017-09-17T23:55:35.646Z,9.23
2017-09-17T23:58:02.035Z,6.87
